Time;durP1;ratioP1;P1;durP2;ratioP2;P2;SDS_P1;SDS_P2;PMS_P1;PMS_P2;Temp;Humidity;BMP_temperature;BMP_pressure;BME280_temperature;BME280_humidity;BME280_pressure;Samples;Min_cycle;Max_cycle;Signal;HPM_P1;HPM_P2
2022/12/05 00:09:12;;;;;;;16.30;7.53;;;4.80;99.90;;;;;;6390470;22;20022;-90
2022/12/05 00:11:42;;;;;;;18.13;7.70;;;4.80;99.90;;;;;;6389360;22;20018;-89
2022/12/05 00:14:09;;;;;;;15.45;6.93;;;4.80;99.90;;;;;;6363782;22;20110;-89
2022/12/05 00:16:44;;;;;;;16.38;6.95;;;4.80;99.90;;;;;;6340129;22;20018;-89
2022/12/05 00:19:14;;;;;;;16.50;7.88;;;4.80;99.90;;;;;;6364469;22;20021;-89
2022/12/05 00:22:05;;;;;;;17.20;7.78;;;4.80;99.90;;;;;;6363595;22;20018;-89
2022/12/05 00:24:31;;;;;;;18.60;7.53;;;4.80;99.90;;;;;;6363704;22;20018;-90
2022/12/05 00:26:57;;;;;;;22.52;9.02;;;4.80;99.90;;;;;;6389317;22;20043;-90
2022/12/05 00:29:23;;;;;;;21.13;8.73;;;4.80;99.90;;;;;;6361983;22;20053;-89
2022/12/05 00:31:48;;;;;;;23.53;8.73;;;4.90;99.90;;;;;;6361073;22;20150;-89
2022/12/05 00:34:42;;;;;;;24.37;9.27;;;4.90;99.90;;;;;;6335950;22;20038;-88
2022/12/05 00:37:09;;;;;;;18.27;7.55;;;4.90;99.90;;;;;;6360461;22;20024;-89
2022/12/05 00:42:10;;;;;;;17.02;7.68;;;4.90;99.90;;;;;;6409465;22;20018;-89
2022/12/05 00:44:47;;;;;;;19.27;8.48;;;4.90;99.90;;;;;;6412938;22;20018;-89
2022/12/05 00:47:13;;;;;;;20.70;7.82;;;4.90;99.90;;;;;;6361131;22;20013;-90
2022/12/05 00:50:22;;;;;;;19.27;8.67;;;4.90;99.90;;;;;;6360341;22;20096;-90
2022/12/05 00:56:30;;;;;;;15.23;7.07;;;5.00;99.90;;;;;;6412455;22;20044;-89
2022/12/05 00:58:58;;;;;;;18.65;7.78;;;5.00;99.90;;;;;;6383964;22;19998;-89
2022/12/05 01:01:28;;;;;;;17.50;6.78;;;5.00;99.90;;;;;;6384452;22;20010;-89
2022/12/05 01:03:56;;;;;;;16.38;5.85;;;5.00;99.90;;;;;;6384252;22;20434;-90
2022/12/05 01:06:41;;;;;;;18.90;7.72;;;5.00;99.90;;;;;;6386191;22;20022;-89
2022/12/05 01:09:08;;;;;;;16.13;7.35;;;5.00;99.90;;;;;;6358630;22;19998;-91
2022/12/05 01:14:11;;;;;;;11.90;5.88;;;5.10;99.90;;;;;;6347969;22;19960;-90
2022/12/05 01:16:43;;;;;;;15.77;6.18;;;5.10;99.90;;;;;;6297323;22;20072;-89
2022/12/05 01:19:16;;;;;;;15.73;5.43;;;5.10;99.90;;;;;;6297354;22;20076;-90
2022/12/05 01:21:45;;;;;;;15.38;6.03;;;5.20;99.90;;;;;;6297567;22;20021;-90
2022/12/05 01:24:13;;;;;;;11.95;5.22;;;5.20;99.90;;;;;;6322607;22;20038;-90
2022/12/05 01:26:41;;;;;;;12.48;6.28;;;5.20;99.90;;;;;;6298674;22;20015;-90
2022/12/05 01:29:07;;;;;;;10.93;4.82;;;5.20;99.90;;;;;;6295667;22;19995;-91
2022/12/05 01:31:36;;;;;;;13.80;5.63;;;5.30;99.90;;;;;;6296191;22;20002;-90
2022/12/05 01:34:39;;;;;;;12.45;6.00;;;5.30;99.90;;;;;;6296201;22;20015;-96
2022/12/05 01:37:07;;;;;;;13.52;5.57;;;5.30;99.90;;;;;;6295847;22;20320;-89
2022/12/05 01:39:33;;;;;;;11.63;5.20;;;5.30;99.90;;;;;;6296054;22;20005;-90
2022/12/05 01:41:59;;;;;;;10.63;5.70;;;5.40;99.90;;;;;;6296450;22;20460;-90
2022/12/05 01:44:32;;;;;;;12.80;5.38;;;5.40;99.90;;;;;;6320524;22;20062;-89
2022/12/05 01:46:58;;;;;;;10.88;5.03;;;5.40;99.90;;;;;;6297390;22;19999;-88
2022/12/05 01:49:34;;;;;;;12.60;5.40;;;5.40;99.90;;;;;;6298348;22;20026;-90
2022/12/05 01:52:06;;;;;;;8.40;4.55;;;5.40;99.90;;;;;;6322994;22;20041;-91
2022/12/05 01:54:49;;;;;;;11.73;5.18;;;5.40;99.90;;;;;;6296594;22;20014;-90
2022/12/05 01:57:18;;;;;;;8.65;4.07;;;5.40;99.90;;;;;;6317452;22;20019;-89
2022/12/05 01:59:50;;;;;;;9.30;4.43;;;5.40;99.90;;;;;;6323715;22;20011;-88
2022/12/05 02:02:18;;;;;;;8.15;4.30;;;5.40;99.90;;;;;;6298024;22;20015;-88
2022/12/05 02:05:08;;;;;;;12.70;4.45;;;5.40;99.90;;;;;;6323701;22;20457;-89
2022/12/05 02:08:06;;;;;;;8.88;4.43;;;5.40;99.90;;;;;;6298036;22;20026;-87
2022/12/05 02:10:54;;;;;;;12.38;4.95;;;5.40;99.90;;;;;;6293932;22;20019;-87
2022/12/05 02:13:57;;;;;;;9.18;4.20;;;5.40;99.90;;;;;;6292691;22;20019;-88
2022/12/05 02:16:39;;;;;;;7.60;3.53;;;5.40;99.90;;;;;;6295644;22;20007;-89
2022/12/05 02:19:39;;;;;;;10.50;4.25;;;5.40;99.90;;;;;;6292802;22;20011;-89
2022/12/05 02:30:26;;;;;;;7.75;3.83;;;5.40;99.90;;;;;;6345855;22;20454;-94
2022/12/05 02:33:21;;;;;;;9.40;3.88;;;5.40;99.90;;;;;;6295235;22;20015;-89
2022/12/05 02:35:49;;;;;;;7.00;3.33;;;5.30;99.90;;;;;;6296241;22;20014;-87
2022/12/05 02:38:56;;;;;;;7.57;3.60;;;5.30;99.90;;;;;;6296328;22;20010;-89
2022/12/05 02:41:58;;;;;;;6.82;3.35;;;5.30;99.90;;;;;;6296186;22;20083;-89
2022/12/05 02:44:41;;;;;;;7.57;3.45;;;5.30;99.90;;;;;;6276833;22;20039;-96
2022/12/05 02:47:09;;;;;;;9.52;3.80;;;5.30;99.90;;;;;;6297442;22;20018;-92
2022/12/05 02:49:36;;;;;;;7.55;3.47;;;5.30;99.90;;;;;;6298317;22;20023;-91
2022/12/05 02:52:07;;;;;;;7.88;3.45;;;5.30;99.90;;;;;;6294792;22;20019;-91
2022/12/05 02:54:37;;;;;;;7.30;3.47;;;5.30;99.90;;;;;;6293338;22;20011;-92
2022/12/05 02:57:04;;;;;;;7.78;4.00;;;5.30;99.90;;;;;;6297198;22;20313;-89
2022/12/05 02:59:30;;;;;;;8.25;3.60;;;5.30;99.90;;;;;;6297014;22;20093;-90
2022/12/05 03:01:55;;;;;;;9.33;4.10;;;5.30;99.90;;;;;;6294744;22;20015;-89
2022/12/05 03:04:31;;;;;;;7.00;2.83;;;5.30;99.90;;;;;;6297544;22;20006;-91
2022/12/05 03:07:10;;;;;;;6.18;3.05;;;5.30;99.90;;;;;;6295556;22;20022;-92
2022/12/05 03:09:57;;;;;;;8.25;3.38;;;5.30;99.90;;;;;;6324003;22;20015;-90
2022/12/05 03:12:44;;;;;;;8.07;2.88;;;5.30;99.90;;;;;;6296802;22;20003;-90
2022/12/05 03:15:19;;;;;;;7.68;3.10;;;5.30;99.90;;;;;;6296310;22;20056;-91
2022/12/05 03:17:59;;;;;;;6.93;3.38;;;5.30;99.90;;;;;;6296674;22;20471;-90
2022/12/05 03:20:53;;;;;;;8.07;3.75;;;5.30;99.90;;;;;;6294719;22;20018;-91
2022/12/05 03:23:25;;;;;;;9.10;2.90;;;5.30;99.90;;;;;;6281106;22;20018;-92
2022/12/05 03:26:16;;;;;;;8.18;3.08;;;5.30;99.90;;;;;;6321500;22;20018;-89
2022/12/05 03:28:53;;;;;;;6.78;3.13;;;5.30;99.90;;;;;;6320787;22;20050;-92
2022/12/05 03:31:27;;;;;;;7.70;3.40;;;5.30;99.90;;;;;;6294438;22;20022;-90
2022/12/05 03:33:57;;;;;;;7.55;3.10;;;5.30;99.90;;;;;;6295743;22;20034;-90
2022/12/05 03:36:48;;;;;;;8.68;3.20;;;5.30;99.90;;;;;;6296000;22;20042;-90
2022/12/05 03:39:28;;;;;;;7.38;3.20;;;5.30;99.90;;;;;;6295230;22;20003;-89
2022/12/05 03:42:17;;;;;;;7.60;3.00;;;5.30;99.90;;;;;;6294797;22;20085;-90
2022/12/05 03:45:12;;;;;;;8.85;3.97;;;5.30;99.90;;;;;;6296640;22;20019;-90
2022/12/05 03:47:50;;;;;;;7.47;3.33;;;5.20;99.90;;;;;;6293109;22;20355;-90
2022/12/05 03:50:24;;;;;;;;;;;5.20;99.90;;;;;;6297819;22;20015;-90
2022/12/05 03:57:10;;;;;;;6.88;3.78;;;5.30;99.90;;;;;;6351752;22;20010;-89
2022/12/05 04:00:00;;;;;;;9.95;4.10;;;5.30;99.90;;;;;;6296734;22;20015;-89
2022/12/05 04:03:06;;;;;;;10.18;3.58;;;5.20;99.90;;;;;;6297420;22;20010;-89
2022/12/05 04:05:57;;;;;;;10.15;4.22;;;5.20;99.90;;;;;;6297432;22;20444;-88
2022/12/05 04:09:01;;;;;;;7.75;3.13;;;5.20;99.90;;;;;;6175700;23;20001;-92
2022/12/05 04:11:38;;;;;;;7.80;3.15;;;5.20;99.90;;;;;;6267045;22;20040;-91
2022/12/05 04:14:19;;;;;;;8.73;3.60;;;5.20;99.90;;;;;;6292794;22;20106;-89
2022/12/05 04:17:05;;;;;;;8.15;3.28;;;5.20;99.90;;;;;;6317736;22;20027;-89
2022/12/05 04:22:06;;;;;;;9.88;4.20;;;5.20;99.90;;;;;;6348765;22;20011;-88
2022/12/05 04:27:47;;;;;;;7.10;3.17;;;5.20;99.90;;;;;;6352742;22;20063;-91
2022/12/05 04:30:22;;;;;;;9.30;3.47;;;5.30;99.90;;;;;;6329717;22;20060;-91
2022/12/05 04:33:10;;;;;;;8.00;3.50;;;5.30;99.90;;;;;;6329556;22;20045;-91
2022/12/05 04:35:48;;;;;;;;;;;5.20;99.90;;;;;;6331347;22;20017;-91
2022/12/05 04:38:49;;;;;;;8.13;3.27;;;5.30;99.90;;;;;;6330237;22;20383;-90
2022/12/05 04:43:42;;;;;;;7.93;4.33;;;5.30;99.90;;;;;;6379384;22;20041;-91
2022/12/05 04:46:12;;;;;;;7.15;3.15;;;5.30;99.90;;;;;;6329608;22;20012;-91
2022/12/05 04:48:40;;;;;;;8.32;3.13;;;5.30;99.90;;;;;;6331654;22;20206;-91
2022/12/05 04:51:17;;;;;;;9.55;3.45;;;5.30;99.90;;;;;;6330223;22;20014;-91
2022/12/05 04:53:45;;;;;;;9.93;3.40;;;5.30;99.90;;;;;;6329612;22;20072;-90
2022/12/05 04:58:46;;;;;;;7.97;3.17;;;5.30;99.90;;;;;;6387214;22;20018;-91
2022/12/05 05:01:40;;;;;;;9.23;3.20;;;5.30;99.90;;;;;;6388042;22;20037;-90
2022/12/05 05:04:15;;;;;;;10.55;3.40;;;5.30;99.90;;;;;;6387431;22;20010;-92
2022/12/05 05:06:41;;;;;;;7.20;3.50;;;5.30;99.90;;;;;;6386018;22;20037;-91
2022/12/05 05:09:07;;;;;;;10.15;3.97;;;5.30;99.90;;;;;;6361128;22;20451;-91
2022/12/05 05:11:34;;;;;;;9.17;3.80;;;5.30;99.90;;;;;;6386805;22;20047;-90
2022/12/05 05:14:00;;;;;;;;;;;5.30;99.90;;;;;;6385873;22;20339;-91
2022/12/05 05:16:29;;;;;;;9.00;3.45;;;5.30;99.90;;;;;;6385427;22;19914;-91
2022/12/05 05:18:58;;;;;;;8.55;3.67;;;5.30;99.90;;;;;;6384206;22;20010;-92
2022/12/05 05:21:51;;;;;;;7.55;3.42;;;5.30;99.90;;;;;;6386122;22;20021;-90
2022/12/05 05:24:25;;;;;;;6.53;3.28;;;5.30;99.90;;;;;;6408347;22;20093;-91
2022/12/05 05:26:51;;;;;;;8.98;3.55;;;5.30;99.90;;;;;;6386768;22;20018;-91
2022/12/05 05:29:17;;;;;;;8.70;3.50;;;5.30;99.90;;;;;;6387030;22;20075;-92
2022/12/05 05:31:43;;;;;;;8.50;3.23;;;5.30;99.90;;;;;;6385372;22;20014;-91
2022/12/05 05:34:11;;;;;;;8.85;3.50;;;5.30;99.90;;;;;;6412643;22;20248;-92
2022/12/05 05:36:37;;;;;;;8.73;4.17;;;5.30;99.90;;;;;;6385689;22;20018;-90
2022/12/05 05:39:08;;;;;;;7.95;3.00;;;5.30;99.90;;;;;;6387071;22;20021;-91
2022/12/05 05:41:35;;;;;;;8.00;3.13;;;5.30;99.90;;;;;;6384155;22;20014;-91
2022/12/05 05:44:01;;;;;;;10.13;3.67;;;5.30;99.90;;;;;;6387119;22;20061;-92
2022/12/05 05:46:30;;;;;;;5.90;2.60;;;5.30;99.90;;;;;;6388552;22;20014;-96
2022/12/05 05:48:56;;;;;;;8.25;3.28;;;5.30;99.90;;;;;;6388701;22;20018;-96
2022/12/05 05:51:28;;;;;;;7.28;3.13;;;5.30;99.90;;;;;;6390088;22;20014;-90
2022/12/05 05:53:54;;;;;;;6.93;3.17;;;5.30;99.90;;;;;;6389271;22;20021;-91
2022/12/05 05:56:30;;;;;;;6.03;2.83;;;5.30;99.90;;;;;;6416070;22;20020;-91
2022/12/05 05:59:00;;;;;;;8.38;3.17;;;5.30;99.90;;;;;;6360317;22;20455;-91
2022/12/05 06:01:27;;;;;;;6.47;3.10;;;5.40;99.90;;;;;;6385316;22;20086;-92
2022/12/05 06:09:06;;;;;;;8.13;3.00;;;5.30;99.90;;;;;;6386162;22;20018;-90
2022/12/05 06:11:31;;;;;;;8.25;3.58;;;5.40;99.90;;;;;;6359061;22;20018;-90
2022/12/05 06:14:01;;;;;;;9.60;2.87;;;5.40;99.90;;;;;;6332207;22;20507;-93
2022/12/05 06:16:30;;;;;;;6.57;2.63;;;5.40;99.90;;;;;;6360024;22;20098;-91
2022/12/05 06:18:56;;;;;;;7.53;3.72;;;5.40;99.90;;;;;;6333753;22;20048;-91
2022/12/05 06:21:28;;;;;;;6.72;2.70;;;5.40;99.90;;;;;;6333171;22;20480;-91
2022/12/05 06:23:54;;;;;;;11.90;3.67;;;5.40;99.90;;;;;;6357366;22;20443;-91
2022/12/05 06:26:21;;;;;;;7.80;3.17;;;5.40;99.90;;;;;;6332338;22;20074;-91
2022/12/05 06:28:51;;;;;;;7.78;3.20;;;5.40;99.90;;;;;;6383853;22;20014;-90
2022/12/05 06:31:19;;;;;;;9.98;3.30;;;5.40;99.90;;;;;;6359838;22;19998;-92
2022/12/05 06:34:09;;;;;;;7.55;3.30;;;5.40;99.90;;;;;;6355677;22;20048;-92
2022/12/05 06:36:36;;;;;;;8.57;3.50;;;5.40;99.90;;;;;;6359882;22;20455;-91
2022/12/05 06:39:04;;;;;;;9.02;3.67;;;5.40;99.90;;;;;;6358931;22;20057;-90
2022/12/05 06:43:57;;;;;;;9.17;3.63;;;5.40;99.90;;;;;;6408380;22;20025;-91
2022/12/05 06:46:24;;;;;;;7.80;3.70;;;5.40;99.90;;;;;;6382388;22;20527;-91
2022/12/05 06:56:16;;;;;;;9.93;3.38;;;5.40;99.90;;;;;;6403039;22;20013;-90
2022/12/05 06:58:46;;;;;;;12.52;3.25;;;5.40;99.90;;;;;;6374716;22;20020;-91
2022/12/05 07:04:44;;;;;;;10.15;4.00;;;5.40;99.90;;;;;;6383724;22;20619;-90
2022/12/05 07:07:34;;;;;;;7.40;3.42;;;5.40;99.90;;;;;;6385906;22;20052;-90
2022/12/05 07:25:33;;;;;;;7.55;3.30;;;5.50;99.90;;;;;;6403337;22;20022;-89
2022/12/05 07:28:04;;;;;;;9.25;3.28;;;5.50;99.90;;;;;;6381937;22;20029;-91
2022/12/05 07:30:29;;;;;;;7.22;2.80;;;5.50;99.90;;;;;;6325700;22;20025;-89
2022/12/05 07:32:55;;;;;;;8.57;3.50;;;5.50;99.90;;;;;;6352267;22;20041;-91
2022/12/05 07:35:21;;;;;;;8.57;3.53;;;5.50;99.90;;;;;;6351132;22;20447;-90
2022/12/05 07:38:11;;;;;;;6.17;2.67;;;5.50;99.90;;;;;;6326335;22;20021;-90
2022/12/05 07:40:58;;;;;;;10.52;3.15;;;5.50;99.90;;;;;;6378875;22;20350;-89
2022/12/05 07:43:30;;;;;;;7.43;3.65;;;5.50;99.90;;;;;;6360149;22;20013;-89
2022/12/05 07:46:00;;;;;;;9.60;3.63;;;5.50;99.90;;;;;;6362987;22;20073;-92
2022/12/05 07:48:26;;;;;;;8.65;3.17;;;5.60;99.90;;;;;;6350895;22;20014;-89
2022/12/05 07:50:52;;;;;;;6.77;2.80;;;5.60;99.90;;;;;;6356530;22;20018;-91
2022/12/05 08:39:04;;;;;;;7.00;3.00;;;5.60;99.90;;;;;;6410203;22;20025;-95
2022/12/05 08:41:55;;;;;;;8.32;3.33;;;5.50;99.90;;;;;;6382668;22;20044;-89
2022/12/05 08:59:56;;;;;;;7.30;3.03;;;5.60;99.90;;;;;;6400896;22;20025;-91
2022/12/05 09:02:22;;;;;;;11.02;3.33;;;5.60;99.90;;;;;;6375318;22;20408;-91
2022/12/05 09:09:03;;;;;;;8.13;3.35;;;5.60;99.90;;;;;;6407432;22;20062;-88
2022/12/05 09:11:32;;;;;;;7.40;3.15;;;5.60;99.90;;;;;;6380615;22;20021;-91
2022/12/05 09:13:59;;;;;;;9.18;3.28;;;5.60;99.90;;;;;;6383377;22;20110;-91
2022/12/05 09:16:29;;;;;;;12.93;4.03;;;5.60;99.90;;;;;;6409690;22;20088;-89
2022/12/05 09:19:22;;;;;;;11.45;3.78;;;5.60;99.90;;;;;;6411816;22;20025;-91
2022/12/05 09:21:48;;;;;;;10.63;3.28;;;5.60;99.90;;;;;;6380176;22;20016;-90
2022/12/05 09:24:14;;;;;;;10.33;3.90;;;5.60;99.90;;;;;;6385400;22;20049;-90
2022/12/05 09:26:41;;;;;;;11.63;3.93;;;5.60;99.90;;;;;;6380125;22;20013;-89
2022/12/05 09:29:07;;;;;;;11.25;3.55;;;5.60;99.90;;;;;;6377878;22;20089;-89
2022/12/05 09:31:35;;;;;;;10.23;3.72;;;5.70;99.90;;;;;;6379296;22;20021;-90
2022/12/05 09:34:25;;;;;;;7.50;3.45;;;5.60;99.90;;;;;;6384206;22;20068;-90
2022/12/05 09:37:07;;;;;;;8.60;3.40;;;5.70;99.90;;;;;;6404085;22;20018;-90
2022/12/05 09:39:34;;;;;;;11.48;3.67;;;5.70;99.90;;;;;;6378585;22;20047;-89
2022/12/05 09:42:23;;;;;;;8.05;3.95;;;5.70;99.90;;;;;;6378630;22;20020;-90
2022/12/05 09:47:27;;;;;;;8.65;3.80;;;5.70;99.90;;;;;;6377324;22;20019;-89
2022/12/05 09:53:20;;;;;;;10.60;3.92;;;5.70;99.90;;;;;;6309647;22;20444;-90
2022/12/05 09:56:00;;;;;;;12.60;4.90;;;5.70;99.90;;;;;;6282536;22;20022;-92
2022/12/05 09:58:33;;;;;;;11.07;4.63;;;5.70;99.90;;;;;;6287745;22;20019;-89
2022/12/05 10:03:46;;;;;;;10.65;4.47;;;5.60;99.90;;;;;;6377576;22;20320;-90
2022/12/05 10:06:27;;;;;;;8.95;4.18;;;5.70;99.90;;;;;;6322195;22;20026;-91
2022/12/05 10:08:56;;;;;;;9.75;4.53;;;5.60;99.90;;;;;;6294937;22;20053;-90
2022/12/05 10:11:43;;;;;;;9.02;4.25;;;5.60;99.90;;;;;;6347098;22;20101;-89
2022/12/05 10:14:42;;;;;;;8.07;3.63;;;5.60;99.90;;;;;;6318638;22;20435;-91
2022/12/05 10:17:59;;;;;;;;;;;;;;;;;;;;;
2022/12/05 10:20:45;;;;;;;8.60;3.50;;;5.60;99.90;;;;;;6333343;22;20050;-89
2022/12/05 10:23:26;;;;;;;;;;;;;;;;;;;;;
2022/12/05 10:26:01;;;;;;;9.82;4.10;;;5.60;99.90;;;;;;6344595;22;20054;-89
2022/12/05 10:28:45;;;;;;;9.52;3.83;;;5.60;99.90;;;;;;6349004;22;20123;-89
2022/12/05 10:31:44;;;;;;;11.25;3.38;;;5.60;99.90;;;;;;6319212;22;20014;-91
2022/12/05 10:35:17;;;;;;;;;;;;;;;;;;;;;
2022/12/05 10:38:11;;;;;;;8.90;3.80;;;5.60;99.90;;;;;;6189667;23;20308;-92
2022/12/05 10:40:45;;;;;;;8.25;3.13;;;5.60;99.90;;;;;;6279338;22;20022;-91
2022/12/05 10:43:27;;;;;;;8.85;3.35;;;5.60;99.90;;;;;;6283428;22;20054;-90
2022/12/05 10:45:54;;;;;;;7.50;3.40;;;5.60;99.90;;;;;;6281250;22;20055;-89
2022/12/05 10:48:21;;;;;;;9.05;3.78;;;5.60;99.90;;;;;;6281461;22;20020;-91
2022/12/05 10:50:51;;;;;;;7.85;2.90;;;5.60;99.90;;;;;;6279561;22;20140;-92
2022/12/05 10:53:23;;;;;;;8.68;3.45;;;5.60;99.90;;;;;;6279993;22;20532;-91
2022/12/05 10:55:50;;;;;;;8.05;3.53;;;5.60;99.90;;;;;;6255072;22;20488;-90
2022/12/05 10:58:21;;;;;;;;;;;5.60;99.90;;;;;;6292447;22;20017;-94
2022/12/05 11:00:50;;;;;;;7.85;2.90;;;5.50;99.90;;;;;;6318406;22;19940;-93
2022/12/05 11:03:32;;;;;;;8.68;3.50;;;5.60;99.90;;;;;;6317104;22;20063;-91
2022/12/05 11:06:01;;;;;;;8.98;3.17;;;5.60;99.90;;;;;;6318175;22;20025;-91
2022/12/05 11:08:30;;;;;;;6.82;2.55;;;5.60;99.90;;;;;;6318114;22;20017;-92
2022/12/05 11:11:16;;;;;;;9.10;3.03;;;5.60;99.90;;;;;;6318015;22;20026;-91
2022/12/05 11:14:03;;;;;;;6.70;2.60;;;5.60;99.90;;;;;;6318104;22;20050;-92
2022/12/05 11:16:33;;;;;;;6.30;2.63;;;5.60;99.90;;;;;;6320077;22;20014;-92
2022/12/05 11:19:31;;;;;;;7.45;2.88;;;5.60;99.90;;;;;;6317467;22;20085;-93
2022/12/05 11:21:57;;;;;;;6.20;2.45;;;5.60;99.90;;;;;;6344606;22;20040;-95
2022/12/05 11:24:37;;;;;;;6.10;2.45;;;5.60;99.90;;;;;;6317401;22;20451;-93
2022/12/05 11:27:15;;;;;;;7.32;2.75;;;5.60;99.90;;;;;;6343223;22;20112;-92
2022/12/05 11:29:53;;;;;;;5.75;1.88;;;5.60;99.90;;;;;;6343501;22;20019;-93
2022/12/05 11:32:25;;;;;;;5.50;2.13;;;5.60;99.90;;;;;;6319810;22;20018;-91
2022/12/05 11:35:12;;;;;;;7.03;2.75;;;5.60;99.90;;;;;;6320975;22;20443;-92
2022/12/05 11:37:49;;;;;;;8.52;2.28;;;5.60;99.90;;;;;;6351287;22;20014;-91
2022/12/05 11:40:27;;;;;;;6.68;2.33;;;5.60;99.90;;;;;;6327555;22;20022;-93
2022/12/05 11:43:27;;;;;;;4.88;1.98;;;5.60;99.90;;;;;;6352174;22;20491;-94
2022/12/05 11:47:23;;;;;;;;;;;;;;;;;;;;;
2022/12/05 11:50:21;;;;;;;6.63;2.40;;;5.60;99.90;;;;;;6324934;22;20018;-91
2022/12/05 12:40:21;;;;;;;5.45;1.83;;;5.60;99.90;;;;;;6402810;22;20018;-94
2022/12/05 12:42:59;;;;;;;4.82;1.88;;;5.60;99.90;;;;;;6376455;22;20018;-92
2022/12/05 12:45:28;;;;;;;;;;;5.60;99.90;;;;;;6377362;22;20018;-95
2022/12/05 12:48:02;;;;;;;5.07;1.52;;;5.60;99.90;;;;;;6382335;22;19921;-95
2022/12/05 12:50:37;;;;;;;6.32;1.88;;;5.60;99.90;;;;;;6378553;22;20005;-92
2022/12/05 12:53:27;;;;;;;5.78;1.60;;;5.60;99.90;;;;;;6377398;22;20010;-92
2022/12/05 12:56:27;;;;;;;3.88;1.10;;;5.70;99.90;;;;;;6389647;22;20017;-93
2022/12/05 12:59:08;;;;;;;3.90;1.60;;;5.60;99.90;;;;;;6379499;22;20014;-93
2022/12/05 13:01:56;;;;;;;3.67;1.30;;;5.70;99.90;;;;;;6387766;22;20042;-94
2022/12/05 13:14:58;;;;;;;4.15;1.63;;;5.60;99.90;;;;;;6402668;22;20041;-92
2022/12/05 13:17:25;;;;;;;4.03;1.60;;;5.60;99.90;;;;;;6376336;22;20033;-93
2022/12/05 13:19:55;;;;;;;4.20;1.67;;;5.60;99.90;;;;;;6382016;22;20036;-90
2022/12/05 13:22:23;;;;;;;5.13;1.42;;;5.60;99.90;;;;;;6361063;22;19997;-91
2022/12/05 13:24:53;;;;;;;3.72;1.33;;;5.60;99.90;;;;;;6377635;22;20025;-90
2022/12/05 13:27:28;;;;;;;4.28;1.35;;;5.60;99.90;;;;;;6355341;22;20048;-91
2022/12/05 14:21:26;;;;;;;3.42;1.08;;;5.60;99.90;;;;;;6349341;22;20018;-92
2022/12/05 14:24:29;;;;;;;4.72;1.30;;;5.60;99.90;;;;;;6254103;23;20154;-92
2022/12/05 14:47:55;;;;;;;5.15;1.13;;;5.50;99.90;;;;;;6382038;22;20025;-91
2022/12/05 14:50:36;;;;;;;4.05;1.00;;;5.50;99.90;;;;;;6388471;22;20022;-90
2022/12/05 15:03:31;;;;;;;4.70;1.50;;;5.50;99.90;;;;;;6416361;22;20549;-91
2022/12/05 15:08:48;;;;;;;3.75;1.17;;;5.50;99.90;;;;;;6383883;22;20023;-91
2022/12/05 15:11:27;;;;;;;3.75;0.98;;;5.50;99.90;;;;;;6330563;22;20023;-90
2022/12/05 15:14:08;;;;;;;4.50;1.33;;;5.50;99.90;;;;;;6358969;22;20439;-90
2022/12/05 15:16:42;;;;;;;4.15;1.20;;;5.50;99.90;;;;;;6357748;22;20014;-89
2022/12/05 15:19:29;;;;;;;3.78;1.27;;;5.50;99.90;;;;;;6329776;22;20017;-90
2022/12/05 15:45:13;;;;;;;5.15;1.73;;;5.40;99.90;;;;;;6403769;22;20028;-91
2022/12/05 15:47:47;;;;;;;3.67;1.23;;;5.40;99.90;;;;;;6354862;22;20093;-89
2022/12/05 15:50:24;;;;;;;3.08;1.23;;;5.40;99.90;;;;;;6358961;22;20058;-90
2022/12/05 15:53:21;;;;;;;;;;;;;;;;;;;;;
2022/12/05 15:56:39;;;;;;;5.03;1.58;;;5.50;99.90;;;;;;6327537;22;20021;-92
2022/12/05 15:59:23;;;;;;;4.10;1.38;;;5.40;99.90;;;;;;6351233;22;20088;-91
2022/12/05 16:01:54;;;;;;;5.68;1.77;;;5.40;99.90;;;;;;6353141;22;20067;-91
2022/12/05 16:04:36;;;;;;;5.43;2.10;;;5.50;99.90;;;;;;6380083;22;20018;-91
2022/12/05 16:07:10;;;;;;;5.38;1.40;;;5.40;99.90;;;;;;6353401;22;20021;-93
2022/12/05 16:09:40;;;;;;;4.38;1.75;;;5.40;99.90;;;;;;6352352;22;20018;-91
2022/12/05 16:12:46;;;;;;;4.07;1.85;;;5.40;99.90;;;;;;6353098;22;20024;-92
2022/12/05 16:15:25;;;;;;;3.97;1.55;;;5.40;99.90;;;;;;6348288;22;20010;-91
2022/12/05 16:17:59;;;;;;;4.63;1.50;;;5.40;99.90;;;;;;6354676;22;20017;-90
2022/12/05 16:20:28;;;;;;;4.50;1.75;;;5.40;99.90;;;;;;6357415;22;20025;-90
2022/12/05 16:22:57;;;;;;;3.03;1.35;;;5.40;99.90;;;;;;6354951;22;20384;-91
2022/12/05 16:25:29;;;;;;;4.70;1.98;;;5.40;99.90;;;;;;6355144;22;20021;-91
2022/12/05 16:28:13;;;;;;;5.05;1.88;;;5.40;99.90;;;;;;6357092;22;20017;-89
2022/12/05 16:30:39;;;;;;;5.22;2.13;;;5.40;99.90;;;;;;6357463;22;20067;-90
2022/12/05 16:35:44;;;;;;;4.57;1.77;;;5.40;99.90;;;;;;6408694;22;20022;-91
2022/12/05 16:38:43;;;;;;;4.93;1.88;;;5.40;99.90;;;;;;6382626;22;20022;-90
2022/12/05 16:41:16;;;;;;;4.47;1.40;;;5.40;99.90;;;;;;6379192;22;20435;-90
2022/12/05 16:43:44;;;;;;;6.20;2.00;;;5.50;99.90;;;;;;6377991;22;20014;-91
2022/12/05 16:46:10;;;;;;;5.15;1.73;;;5.50;99.90;;;;;;6379475;22;20455;-90
2022/12/05 16:48:37;;;;;;;6.67;1.93;;;5.50;99.90;;;;;;6386752;22;20014;-91
2022/12/05 16:51:12;;;;;;;4.78;1.65;;;5.50;99.90;;;;;;6382322;22;20021;-91
2022/12/05 16:57:52;;;;;;;;;;;5.50;99.90;;;;;;6414052;22;20029;-88
2022/12/05 17:00:18;;;;;;;4.03;1.40;;;5.50;99.90;;;;;;6384448;22;19914;-89
2022/12/05 17:02:45;;;;;;;4.25;1.40;;;5.50;99.90;;;;;;6354162;22;20018;-89
2022/12/05 17:05:13;;;;;;;7.53;2.25;;;5.50;99.90;;;;;;6376816;22;20018;-89
2022/12/05 17:07:38;;;;;;;4.25;1.75;;;5.50;99.90;;;;;;6350688;22;20443;-93
2022/12/05 17:10:05;;;;;;;5.23;1.57;;;5.50;99.90;;;;;;6375195;22;20032;-90
2022/12/05 17:12:31;;;;;;;4.18;1.55;;;5.50;99.90;;;;;;6375795;22;20014;-88
2022/12/05 17:14:57;;;;;;;3.80;1.20;;;5.50;99.90;;;;;;6375678;22;20022;-90
2022/12/05 17:17:23;;;;;;;3.97;1.67;;;5.50;99.90;;;;;;6349218;22;20303;-88
2022/12/05 17:19:48;;;;;;;4.33;1.80;;;5.50;99.90;;;;;;6375413;22;20017;-91
2022/12/05 17:22:15;;;;;;;4.17;1.60;;;5.50;99.90;;;;;;6349116;22;20013;-89
2022/12/05 17:24:41;;;;;;;4.82;1.60;;;5.50;99.90;;;;;;6375802;22;20017;-88
2022/12/05 17:27:10;;;;;;;4.00;1.33;;;5.50;99.90;;;;;;6375104;22;20056;-88
2022/12/05 17:29:39;;;;;;;4.72;1.55;;;5.50;99.90;;;;;;6375358;22;20025;-91
2022/12/05 18:38:11;;;;;;;;;;;5.60;99.90;;;;;;6375094;22;20060;-91
2022/12/05 18:41:24;;;;;;;5.13;1.60;;;5.60;99.90;;;;;;6347589;22;19914;-94
2022/12/05 19:30:27;;;;;;;3.53;1.10;;;5.60;99.90;;;;;;6402037;22;20033;-93
2022/12/05 19:32:52;;;;;;;2.53;1.00;;;5.60;99.90;;;;;;6374186;22;20014;-88
2022/12/05 19:35:18;;;;;;;2.10;1.03;;;5.60;99.90;;;;;;6401168;22;20403;-91
2022/12/05 19:38:04;;;;;;;2.37;0.97;;;5.60;99.90;;;;;;6351617;22;20024;-94
2022/12/05 20:06:46;;;;;;;5.70;1.20;;;5.60;99.90;;;;;;6404268;22;20029;-92
2022/12/05 20:09:21;;;;;;;2.47;1.05;;;5.60;99.90;;;;;;6404035;22;20022;-95
2022/12/05 20:11:50;;;;;;;3.42;1.33;;;5.60;99.90;;;;;;6377267;22;20057;-91
2022/12/05 20:14:16;;;;;;;5.25;1.30;;;5.60;99.90;;;;;;6355501;22;20013;-92
2022/12/05 20:17:16;;;;;;;3.97;1.30;;;5.60;99.90;;;;;;6352888;22;20025;-95
2022/12/05 20:19:41;;;;;;;3.38;0.93;;;5.60;99.90;;;;;;6377120;22;20018;-90
2022/12/05 20:22:07;;;;;;;4.17;1.10;;;5.60;99.90;;;;;;6376997;22;20029;-91
2022/12/05 20:24:33;;;;;;;4.27;1.10;;;5.60;99.90;;;;;;6405091;22;20006;-91
2022/12/05 20:29:54;;;;;;;7.97;2.08;;;5.60;99.90;;;;;;6344125;22;20105;-88
2022/12/05 20:32:24;;;;;;;7.07;1.47;;;5.60;99.90;;;;;;6389333;22;20438;-88
2022/12/05 20:34:58;;;;;;;4.60;1.77;;;5.60;99.90;;;;;;6362509;22;20014;-91
2022/12/05 20:37:27;;;;;;;4.22;1.75;;;5.60;99.90;;;;;;6382411;22;20014;-94
2022/12/05 20:39:53;;;;;;;7.28;1.27;;;5.70;99.90;;;;;;6381667;22;20010;-94
2022/12/05 20:42:19;;;;;;;2.00;0.77;;;5.60;99.90;;;;;;6377364;22;20052;-90
2022/12/05 20:44:48;;;;;;;2.03;0.90;;;5.60;99.90;;;;;;6349772;22;20014;-93
2022/12/05 20:47:16;;;;;;;2.67;1.20;;;5.60;99.90;;;;;;6353793;22;20017;-95
2022/12/05 20:49:45;;;;;;;5.82;1.30;;;5.60;99.90;;;;;;6377549;22;20041;-89
2022/12/05 20:52:11;;;;;;;3.45;1.30;;;5.60;99.90;;;;;;6381328;22;20068;-89
2022/12/05 20:54:36;;;;;;;6.00;1.67;;;5.60;99.90;;;;;;6354068;22;20018;-92
2022/12/05 21:19:38;;;;;;;3.75;1.42;;;5.60;99.90;;;;;;6409828;22;20385;-88
2022/12/05 21:22:04;;;;;;;4.40;1.30;;;5.60;99.90;;;;;;6377253;22;20018;-89
2022/12/05 21:24:30;;;;;;;5.15;1.30;;;5.60;99.90;;;;;;6402292;22;20089;-89
2022/12/05 21:26:55;;;;;;;4.63;1.30;;;5.60;99.90;;;;;;6375558;22;20058;-89
2022/12/05 21:29:21;;;;;;;4.87;1.80;;;5.60;99.90;;;;;;6376542;22;20103;-90
2022/12/05 21:31:50;;;;;;;5.37;1.53;;;5.60;99.90;;;;;;6348902;22;20025;-90
2022/12/05 21:34:21;;;;;;;3.10;1.05;;;5.60;99.90;;;;;;6375322;22;20010;-87
2022/12/05 21:36:47;;;;;;;3.22;1.30;;;5.60;99.90;;;;;;6375698;22;20087;-90
2022/12/05 21:39:14;;;;;;;4.05;1.10;;;5.60;99.90;;;;;;6377027;22;20013;-92
2022/12/05 21:41:40;;;;;;;3.22;0.90;;;5.60;99.90;;;;;;6403405;22;20381;-89
2022/12/05 21:44:13;;;;;;;4.87;1.13;;;5.60;99.90;;;;;;6376027;22;20039;-89
2022/12/05 21:46:39;;;;;;;3.30;1.10;;;5.60;99.90;;;;;;6376179;22;20026;-89
2022/12/05 21:49:05;;;;;;;6.87;1.13;;;5.60;99.90;;;;;;6349784;22;20056;-90
2022/12/05 21:51:33;;;;;;;4.93;1.17;;;5.60;99.90;;;;;;6349512;22;20021;-88